sensor_id;sensor_type;location;lat;lon;timestamp;temperature;humidity
82836;DHT22;72587;50.746;8.246;2023-12-22T00:00:46;5.40;99.90
82836;DHT22;72587;50.746;8.246;2023-12-22T00:03:13;5.40;99.90
82836;DHT22;72587;50.746;8.246;2023-12-22T00:05:39;5.30;99.90
82836;DHT22;72587;50.746;8.246;2023-12-22T00:08:05;5.40;99.90
82836;DHT22;72587;50.746;8.246;2023-12-22T00:10:31;5.40;99.90
82836;DHT22;72587;50.746;8.246;2023-12-22T00:12:56;5.30;99.90
82836;DHT22;72587;50.746;8.246;2023-12-22T00:15:22;5.30;99.90
82836;DHT22;72587;50.746;8.246;2023-12-22T00:17:47;5.30;99.90
82836;DHT22;72587;50.746;8.246;2023-12-22T00:20:13;5.20;99.90
82836;DHT22;72587;50.746;8.246;2023-12-22T00:22:39;5.20;99.90
82836;DHT22;72587;50.746;8.246;2023-12-22T00:25:05;5.10;99.90
82836;DHT22;72587;50.746;8.246;2023-12-22T00:27:33;5.10;99.90
82836;DHT22;72587;50.746;8.246;2023-12-22T00:29:59;5.00;99.90
82836;DHT22;72587;50.746;8.246;2023-12-22T00:32:24;4.90;99.90
82836;DHT22;72587;50.746;8.246;2023-12-22T00:34:50;4.80;99.90
82836;DHT22;72587;50.746;8.246;2023-12-22T00:37:15;4.80;99.90
82836;DHT22;72587;50.746;8.246;2023-12-22T00:39:41;4.80;99.90
82836;DHT22;72587;50.746;8.246;2023-12-22T00:42:07;4.80;99.90
82836;DHT22;72587;50.746;8.246;2023-12-22T00:44:32;4.70;99.90
82836;DHT22;72587;50.746;8.246;2023-12-22T00:46:58;4.70;99.90
82836;DHT22;72587;50.746;8.246;2023-12-22T00:49:23;4.70;99.90
82836;DHT22;72587;50.746;8.246;2023-12-22T00:51:49;4.60;99.90
82836;DHT22;72587;50.746;8.246;2023-12-22T00:54:14;4.40;99.90
82836;DHT22;72587;50.746;8.246;2023-12-22T00:56:40;4.40;99.90
82836;DHT22;72587;50.746;8.246;2023-12-22T00:59:06;4.40;99.90
82836;DHT22;72587;50.746;8.246;2023-12-22T01:01:31;4.40;99.90
82836;DHT22;72587;50.746;8.246;2023-12-22T01:03:57;4.30;99.90
82836;DHT22;72587;50.746;8.246;2023-12-22T01:06:22;4.30;99.90
82836;DHT22;72587;50.746;8.246;2023-12-22T01:08:48;4.30;99.90
82836;DHT22;72587;50.746;8.246;2023-12-22T01:11:17;4.20;99.90
82836;DHT22;72587;50.746;8.246;2023-12-22T01:13:43;4.20;99.90
82836;DHT22;72587;50.746;8.246;2023-12-22T01:16:09;4.30;99.90
82836;DHT22;72587;50.746;8.246;2023-12-22T01:18:34;4.30;99.90
82836;DHT22;72587;50.746;8.246;2023-12-22T01:21:00;4.20;99.90
82836;DHT22;72587;50.746;8.246;2023-12-22T01:23:25;4.20;99.90
82836;DHT22;72587;50.746;8.246;2023-12-22T01:25:51;4.20;99.90
82836;DHT22;72587;50.746;8.246;2023-12-22T01:28:17;4.10;99.90
82836;DHT22;72587;50.746;8.246;2023-12-22T01:30:42;4.20;99.90
82836;DHT22;72587;50.746;8.246;2023-12-22T01:33:08;4.20;99.90
82836;DHT22;72587;50.746;8.246;2023-12-22T01:35:33;4.20;99.90
82836;DHT22;72587;50.746;8.246;2023-12-22T01:37:59;4.20;99.90
82836;DHT22;72587;50.746;8.246;2023-12-22T01:40:25;4.10;99.90
82836;DHT22;72587;50.746;8.246;2023-12-22T01:42:50;4.10;99.90
82836;DHT22;72587;50.746;8.246;2023-12-22T01:45:16;4.20;99.90
82836;DHT22;72587;50.746;8.246;2023-12-22T01:47:42;4.10;99.90
82836;DHT22;72587;50.746;8.246;2023-12-22T01:50:09;4.10;99.90
82836;DHT22;72587;50.746;8.246;2023-12-22T01:52:39;4.10;99.90
82836;DHT22;72587;50.746;8.246;2023-12-22T01:55:06;4.20;99.90
82836;DHT22;72587;50.746;8.246;2023-12-22T01:57:33;4.10;99.90
82836;DHT22;72587;50.746;8.246;2023-12-22T02:00:01;4.10;99.90
82836;DHT22;72587;50.746;8.246;2023-12-22T02:02:27;4.10;99.90
82836;DHT22;72587;50.746;8.246;2023-12-22T02:04:53;4.10;99.90
82836;DHT22;72587;50.746;8.246;2023-12-22T02:07:19;4.10;99.90
82836;DHT22;72587;50.746;8.246;2023-12-22T02:09:45;4.00;99.90
82836;DHT22;72587;50.746;8.246;2023-12-22T02:12:11;4.00;99.90
82836;DHT22;72587;50.746;8.246;2023-12-22T02:14:36;4.00;99.90
82836;DHT22;72587;50.746;8.246;2023-12-22T02:17:11;4.10;99.90
82836;DHT22;72587;50.746;8.246;2023-12-22T02:19:43;4.10;99.90
82836;DHT22;72587;50.746;8.246;2023-12-22T02:22:10;4.10;99.90
82836;DHT22;72587;50.746;8.246;2023-12-22T02:24:37;4.10;99.90
82836;DHT22;72587;50.746;8.246;2023-12-22T02:27:30;4.10;99.90
82836;DHT22;72587;50.746;8.246;2023-12-22T02:30:31;4.10;99.90
82836;DHT22;72587;50.746;8.246;2023-12-22T02:33:04;4.10;99.90
82836;DHT22;72587;50.746;8.246;2023-12-22T02:35:32;4.10;99.90
82836;DHT22;72587;50.746;8.246;2023-12-22T02:38:00;4.00;99.90
82836;DHT22;72587;50.746;8.246;2023-12-22T02:40:26;4.00;99.90
82836;DHT22;72587;50.746;8.246;2023-12-22T02:42:53;3.90;99.90
82836;DHT22;72587;50.746;8.246;2023-12-22T02:45:19;3.90;99.90
82836;DHT22;72587;50.746;8.246;2023-12-22T02:47:46;3.80;99.90
82836;DHT22;72587;50.746;8.246;2023-12-22T02:50:13;3.70;99.90
82836;DHT22;72587;50.746;8.246;2023-12-22T02:52:40;3.60;99.90
82836;DHT22;72587;50.746;8.246;2023-12-22T02:55:06;3.40;99.90
82836;DHT22;72587;50.746;8.246;2023-12-22T02:57:31;3.20;99.90
82836;DHT22;72587;50.746;8.246;2023-12-22T02:59:57;3.30;99.90
82836;DHT22;72587;50.746;8.246;2023-12-22T03:02:23;3.30;99.90
82836;DHT22;72587;50.746;8.246;2023-12-22T03:04:49;3.10;99.90
82836;DHT22;72587;50.746;8.246;2023-12-22T03:07:15;3.00;99.90
82836;DHT22;72587;50.746;8.246;2023-12-22T03:09:41;3.00;99.90
82836;DHT22;72587;50.746;8.246;2023-12-22T03:12:08;2.90;99.90
82836;DHT22;72587;50.746;8.246;2023-12-22T03:14:34;2.70;99.90
82836;DHT22;72587;50.746;8.246;2023-12-22T03:17:04;2.60;99.90
82836;DHT22;72587;50.746;8.246;2023-12-22T03:19:30;2.60;99.90
82836;DHT22;72587;50.746;8.246;2023-12-22T03:21:56;2.70;99.90
82836;DHT22;72587;50.746;8.246;2023-12-22T03:24:25;2.60;99.90
82836;DHT22;72587;50.746;8.246;2023-12-22T03:26:51;2.60;99.90
82836;DHT22;72587;50.746;8.246;2023-12-22T03:29:17;2.60;99.90
82836;DHT22;72587;50.746;8.246;2023-12-22T03:31:43;2.60;99.90
82836;DHT22;72587;50.746;8.246;2023-12-22T03:34:09;2.60;99.90
82836;DHT22;72587;50.746;8.246;2023-12-22T03:36:35;2.60;99.90
82836;DHT22;72587;50.746;8.246;2023-12-22T03:39:00;2.70;99.90
82836;DHT22;72587;50.746;8.246;2023-12-22T03:41:26;2.70;99.90
82836;DHT22;72587;50.746;8.246;2023-12-22T03:43:52;2.70;99.90
82836;DHT22;72587;50.746;8.246;2023-12-22T03:46:17;2.70;99.90
82836;DHT22;72587;50.746;8.246;2023-12-22T03:48:44;2.80;99.90
82836;DHT22;72587;50.746;8.246;2023-12-22T03:51:09;2.90;99.90
82836;DHT22;72587;50.746;8.246;2023-12-22T03:53:37;3.00;99.90
82836;DHT22;72587;50.746;8.246;2023-12-22T03:56:02;3.00;99.90
82836;DHT22;72587;50.746;8.246;2023-12-22T03:58:28;3.10;99.90
82836;DHT22;72587;50.746;8.246;2023-12-22T04:00:55;3.10;99.90
82836;DHT22;72587;50.746;8.246;2023-12-22T04:03:21;3.10;99.90
82836;DHT22;72587;50.746;8.246;2023-12-22T04:05:46;3.20;99.90
82836;DHT22;72587;50.746;8.246;2023-12-22T04:08:12;3.20;99.90
82836;DHT22;72587;50.746;8.246;2023-12-22T04:10:37;3.10;99.90
82836;DHT22;72587;50.746;8.246;2023-12-22T04:13:03;3.10;99.90
82836;DHT22;72587;50.746;8.246;2023-12-22T04:15:29;3.00;99.90
82836;DHT22;72587;50.746;8.246;2023-12-22T04:17:54;2.90;99.90
82836;DHT22;72587;50.746;8.246;2023-12-22T04:20:20;2.80;99.90
82836;DHT22;72587;50.746;8.246;2023-12-22T04:22:45;2.70;99.90
82836;DHT22;72587;50.746;8.246;2023-12-22T04:25:11;2.70;99.90
82836;DHT22;72587;50.746;8.246;2023-12-22T04:27:36;2.70;99.90
82836;DHT22;72587;50.746;8.246;2023-12-22T04:30:02;2.70;99.90
82836;DHT22;72587;50.746;8.246;2023-12-22T04:32:28;2.70;99.90
82836;DHT22;72587;50.746;8.246;2023-12-22T04:34:53;2.70;99.90
82836;DHT22;72587;50.746;8.246;2023-12-22T04:37:19;2.70;99.90
82836;DHT22;72587;50.746;8.246;2023-12-22T04:39:45;2.70;99.90
82836;DHT22;72587;50.746;8.246;2023-12-22T04:42:10;2.80;99.90
82836;DHT22;72587;50.746;8.246;2023-12-22T04:44:36;2.80;99.90
82836;DHT22;72587;50.746;8.246;2023-12-22T04:47:01;2.80;99.90
82836;DHT22;72587;50.746;8.246;2023-12-22T04:49:27;2.90;99.90
82836;DHT22;72587;50.746;8.246;2023-12-22T04:51:53;2.80;99.90
82836;DHT22;72587;50.746;8.246;2023-12-22T04:54:18;2.80;99.90
82836;DHT22;72587;50.746;8.246;2023-12-22T04:56:44;2.80;99.90
82836;DHT22;72587;50.746;8.246;2023-12-22T04:59:09;2.80;99.90
82836;DHT22;72587;50.746;8.246;2023-12-22T05:01:35;2.80;99.90
82836;DHT22;72587;50.746;8.246;2023-12-22T05:04:00;2.80;99.90
82836;DHT22;72587;50.746;8.246;2023-12-22T05:06:27;3.00;99.90
82836;DHT22;72587;50.746;8.246;2023-12-22T05:08:54;3.00;99.90
82836;DHT22;72587;50.746;8.246;2023-12-22T05:11:20;3.10;99.90
82836;DHT22;72587;50.746;8.246;2023-12-22T05:13:45;3.10;99.90
82836;DHT22;72587;50.746;8.246;2023-12-22T05:16:11;3.20;99.90
82836;DHT22;72587;50.746;8.246;2023-12-22T05:18:36;3.30;99.90
82836;DHT22;72587;50.746;8.246;2023-12-22T05:21:03;3.50;99.90
82836;DHT22;72587;50.746;8.246;2023-12-22T05:23:28;3.60;99.90
82836;DHT22;72587;50.746;8.246;2023-12-22T05:25:54;3.80;99.90
82836;DHT22;72587;50.746;8.246;2023-12-22T05:28:19;4.00;99.90
82836;DHT22;72587;50.746;8.246;2023-12-22T05:30:45;4.00;99.90
82836;DHT22;72587;50.746;8.246;2023-12-22T05:33:12;4.10;99.90
82836;DHT22;72587;50.746;8.246;2023-12-22T05:35:37;4.20;99.90
82836;DHT22;72587;50.746;8.246;2023-12-22T05:38:03;4.30;99.90
82836;DHT22;72587;50.746;8.246;2023-12-22T05:40:31;4.30;99.90
82836;DHT22;72587;50.746;8.246;2023-12-22T05:42:57;4.30;99.90
82836;DHT22;72587;50.746;8.246;2023-12-22T05:45:24;4.30;99.90
82836;DHT22;72587;50.746;8.246;2023-12-22T05:47:50;4.30;99.90
82836;DHT22;72587;50.746;8.246;2023-12-22T05:50:16;4.30;99.90
82836;DHT22;72587;50.746;8.246;2023-12-22T05:52:42;4.30;99.90
82836;DHT22;72587;50.746;8.246;2023-12-22T05:55:09;4.40;99.90
82836;DHT22;72587;50.746;8.246;2023-12-22T05:57:34;4.40;99.90
82836;DHT22;72587;50.746;8.246;2023-12-22T06:00:00;4.40;99.90
82836;DHT22;72587;50.746;8.246;2023-12-22T06:02:26;4.40;99.90
82836;DHT22;72587;50.746;8.246;2023-12-22T06:04:51;4.50;99.90
82836;DHT22;72587;50.746;8.246;2023-12-22T06:07:17;4.60;99.90
82836;DHT22;72587;50.746;8.246;2023-12-22T06:09:44;4.60;99.90
82836;DHT22;72587;50.746;8.246;2023-12-22T06:12:10;4.60;99.90
82836;DHT22;72587;50.746;8.246;2023-12-22T06:14:35;4.70;99.90
82836;DHT22;72587;50.746;8.246;2023-12-22T06:17:01;4.70;99.90
82836;DHT22;72587;50.746;8.246;2023-12-22T06:19:27;4.70;99.90
82836;DHT22;72587;50.746;8.246;2023-12-22T06:21:56;4.70;99.90
82836;DHT22;72587;50.746;8.246;2023-12-22T06:24:22;4.70;99.90
82836;DHT22;72587;50.746;8.246;2023-12-22T06:26:48;4.70;99.90
82836;DHT22;72587;50.746;8.246;2023-12-22T06:29:14;4.70;99.90
82836;DHT22;72587;50.746;8.246;2023-12-22T06:31:39;4.70;99.90
82836;DHT22;72587;50.746;8.246;2023-12-22T06:34:05;4.70;99.90
82836;DHT22;72587;50.746;8.246;2023-12-22T06:36:31;4.70;99.90
82836;DHT22;72587;50.746;8.246;2023-12-22T06:38:56;4.70;99.90
82836;DHT22;72587;50.746;8.246;2023-12-22T06:41:24;4.60;99.90
82836;DHT22;72587;50.746;8.246;2023-12-22T06:43:50;4.60;99.90
82836;DHT22;72587;50.746;8.246;2023-12-22T06:46:23;4.70;99.90
82836;DHT22;72587;50.746;8.246;2023-12-22T06:48:51;4.60;99.90
82836;DHT22;72587;50.746;8.246;2023-12-22T06:51:22;4.60;99.90
82836;DHT22;72587;50.746;8.246;2023-12-22T06:53:48;4.60;99.90
82836;DHT22;72587;50.746;8.246;2023-12-22T06:56:18;4.60;99.90
82836;DHT22;72587;50.746;8.246;2023-12-22T06:58:44;4.60;99.90
82836;DHT22;72587;50.746;8.246;2023-12-22T07:01:12;4.60;99.90
82836;DHT22;72587;50.746;8.246;2023-12-22T07:03:37;4.60;99.90
82836;DHT22;72587;50.746;8.246;2023-12-22T07:06:04;4.60;99.90
82836;DHT22;72587;50.746;8.246;2023-12-22T07:08:29;4.50;99.90
82836;DHT22;72587;50.746;8.246;2023-12-22T07:10:55;4.50;99.90
82836;DHT22;72587;50.746;8.246;2023-12-22T07:13:20;4.50;99.90
82836;DHT22;72587;50.746;8.246;2023-12-22T07:15:46;4.50;99.90
82836;DHT22;72587;50.746;8.246;2023-12-22T07:18:11;4.50;99.90
82836;DHT22;72587;50.746;8.246;2023-12-22T07:20:37;4.50;99.90
82836;DHT22;72587;50.746;8.246;2023-12-22T07:23:03;4.50;99.90
82836;DHT22;72587;50.746;8.246;2023-12-22T07:25:28;4.40;99.90
82836;DHT22;72587;50.746;8.246;2023-12-22T07:27:54;4.40;99.90
82836;DHT22;72587;50.746;8.246;2023-12-22T07:30:20;4.40;99.90
82836;DHT22;72587;50.746;8.246;2023-12-22T07:32:45;4.50;99.90
82836;DHT22;72587;50.746;8.246;2023-12-22T07:35:14;4.50;99.90
82836;DHT22;72587;50.746;8.246;2023-12-22T07:37:40;4.50;99.90
82836;DHT22;72587;50.746;8.246;2023-12-22T07:40:06;4.60;99.90
82836;DHT22;72587;50.746;8.246;2023-12-22T07:42:31;4.60;99.90
82836;DHT22;72587;50.746;8.246;2023-12-22T07:44:57;4.70;99.90
82836;DHT22;72587;50.746;8.246;2023-12-22T07:47:23;4.70;99.90
82836;DHT22;72587;50.746;8.246;2023-12-22T07:49:48;4.70;99.90
82836;DHT22;72587;50.746;8.246;2023-12-22T07:52:15;4.80;99.90
82836;DHT22;72587;50.746;8.246;2023-12-22T07:54:40;4.80;99.90
82836;DHT22;72587;50.746;8.246;2023-12-22T07:57:06;4.90;99.90
82836;DHT22;72587;50.746;8.246;2023-12-22T07:59:31;4.90;99.90
82836;DHT22;72587;50.746;8.246;2023-12-22T08:01:57;4.90;99.90
82836;DHT22;72587;50.746;8.246;2023-12-22T08:04:23;5.00;99.90
82836;DHT22;72587;50.746;8.246;2023-12-22T08:06:48;5.00;99.90
82836;DHT22;72587;50.746;8.246;2023-12-22T08:09:14;5.10;99.90
82836;DHT22;72587;50.746;8.246;2023-12-22T08:11:39;5.20;99.90
82836;DHT22;72587;50.746;8.246;2023-12-22T08:14:05;5.30;99.90
82836;DHT22;72587;50.746;8.246;2023-12-22T08:16:31;5.30;99.90
82836;DHT22;72587;50.746;8.246;2023-12-22T08:18:58;5.40;99.90
82836;DHT22;72587;50.746;8.246;2023-12-22T08:21:23;5.40;99.90
82836;DHT22;72587;50.746;8.246;2023-12-22T08:23:49;5.50;99.90
82836;DHT22;72587;50.746;8.246;2023-12-22T08:26:14;5.50;99.90
82836;DHT22;72587;50.746;8.246;2023-12-22T08:28:42;5.60;99.90
82836;DHT22;72587;50.746;8.246;2023-12-22T08:31:08;5.70;99.90
82836;DHT22;72587;50.746;8.246;2023-12-22T08:33:33;5.80;99.90
82836;DHT22;72587;50.746;8.246;2023-12-22T08:35:59;5.80;99.90
82836;DHT22;72587;50.746;8.246;2023-12-22T08:38:24;5.80;99.90
82836;DHT22;72587;50.746;8.246;2023-12-22T08:40:51;5.80;99.90
82836;DHT22;72587;50.746;8.246;2023-12-22T08:43:17;5.80;99.90
82836;DHT22;72587;50.746;8.246;2023-12-22T08:45:43;5.90;99.90
82836;DHT22;72587;50.746;8.246;2023-12-22T08:48:08;5.90;99.90
82836;DHT22;72587;50.746;8.246;2023-12-22T08:50:34;5.90;99.90
82836;DHT22;72587;50.746;8.246;2023-12-22T08:53:00;6.00;99.90
82836;DHT22;72587;50.746;8.246;2023-12-22T08:55:26;6.10;99.90
82836;DHT22;72587;50.746;8.246;2023-12-22T08:57:51;6.10;99.90
82836;DHT22;72587;50.746;8.246;2023-12-22T09:00:17;6.00;99.90
82836;DHT22;72587;50.746;8.246;2023-12-22T09:02:42;6.00;99.90
82836;DHT22;72587;50.746;8.246;2023-12-22T09:05:08;6.10;99.90
82836;DHT22;72587;50.746;8.246;2023-12-22T09:07:33;6.10;99.90
82836;DHT22;72587;50.746;8.246;2023-12-22T09:09:59;6.00;99.90
82836;DHT22;72587;50.746;8.246;2023-12-22T09:12:24;6.10;99.90
82836;DHT22;72587;50.746;8.246;2023-12-22T09:14:50;6.10;99.90
82836;DHT22;72587;50.746;8.246;2023-12-22T09:17:16;6.00;99.90
82836;DHT22;72587;50.746;8.246;2023-12-22T09:19:41;6.10;99.90
82836;DHT22;72587;50.746;8.246;2023-12-22T09:22:08;6.10;99.90
82836;DHT22;72587;50.746;8.246;2023-12-22T09:24:34;6.10;99.90
82836;DHT22;72587;50.746;8.246;2023-12-22T09:26:59;6.20;99.90
82836;DHT22;72587;50.746;8.246;2023-12-22T09:29:31;6.30;99.90
82836;DHT22;72587;50.746;8.246;2023-12-22T09:32:01;6.30;99.90
82836;DHT22;72587;50.746;8.246;2023-12-22T09:34:27;6.40;99.90
82836;DHT22;72587;50.746;8.246;2023-12-22T09:36:56;6.50;99.90
82836;DHT22;72587;50.746;8.246;2023-12-22T09:39:21;6.60;99.90
82836;DHT22;72587;50.746;8.246;2023-12-22T09:41:50;6.60;99.90
82836;DHT22;72587;50.746;8.246;2023-12-22T09:44:19;6.70;99.90
82836;DHT22;72587;50.746;8.246;2023-12-22T09:46:47;6.70;99.90
82836;DHT22;72587;50.746;8.246;2023-12-22T09:49:18;6.80;99.90
82836;DHT22;72587;50.746;8.246;2023-12-22T09:51:45;6.90;99.90
82836;DHT22;72587;50.746;8.246;2023-12-22T09:54:12;6.90;99.90
82836;DHT22;72587;50.746;8.246;2023-12-22T09:56:39;6.80;99.90
82836;DHT22;72587;50.746;8.246;2023-12-22T09:59:11;6.80;99.90
82836;DHT22;72587;50.746;8.246;2023-12-22T10:01:43;6.80;99.90
82836;DHT22;72587;50.746;8.246;2023-12-22T10:04:10;6.90;99.90
82836;DHT22;72587;50.746;8.246;2023-12-22T10:06:35;6.90;99.90
82836;DHT22;72587;50.746;8.246;2023-12-22T10:09:02;6.90;99.90
82836;DHT22;72587;50.746;8.246;2023-12-22T10:11:32;6.90;99.90
82836;DHT22;72587;50.746;8.246;2023-12-22T10:13:59;6.90;99.90
82836;DHT22;72587;50.746;8.246;2023-12-22T10:16:25;7.00;99.90
82836;DHT22;72587;50.746;8.246;2023-12-22T10:18:51;7.00;99.90
82836;DHT22;72587;50.746;8.246;2023-12-22T10:21:17;7.00;99.90
82836;DHT22;72587;50.746;8.246;2023-12-22T10:23:43;6.90;99.90
82836;DHT22;72587;50.746;8.246;2023-12-22T10:26:11;6.90;99.90
82836;DHT22;72587;50.746;8.246;2023-12-22T10:28:37;6.90;99.90
82836;DHT22;72587;50.746;8.246;2023-12-22T10:31:02;6.90;99.90
82836;DHT22;72587;50.746;8.246;2023-12-22T10:33:32;7.00;99.90
82836;DHT22;72587;50.746;8.246;2023-12-22T10:35:59;7.00;99.90
82836;DHT22;72587;50.746;8.246;2023-12-22T10:38:25;7.10;99.90
82836;DHT22;72587;50.746;8.246;2023-12-22T10:40:51;7.10;99.90
82836;DHT22;72587;50.746;8.246;2023-12-22T10:43:17;7.10;99.90
82836;DHT22;72587;50.746;8.246;2023-12-22T10:45:43;7.10;99.90
82836;DHT22;72587;50.746;8.246;2023-12-22T10:48:08;7.20;99.90
82836;DHT22;72587;50.746;8.246;2023-12-22T10:50:35;7.20;99.90
82836;DHT22;72587;50.746;8.246;2023-12-22T10:53:01;7.20;99.90
82836;DHT22;72587;50.746;8.246;2023-12-22T10:55:26;7.20;99.90
82836;DHT22;72587;50.746;8.246;2023-12-22T10:57:53;7.20;99.90
82836;DHT22;72587;50.746;8.246;2023-12-22T11:00:20;7.20;99.90
82836;DHT22;72587;50.746;8.246;2023-12-22T11:02:47;7.20;99.90
82836;DHT22;72587;50.746;8.246;2023-12-22T11:05:14;7.30;99.90
82836;DHT22;72587;50.746;8.246;2023-12-22T11:07:48;7.40;99.90
82836;DHT22;72587;50.746;8.246;2023-12-22T11:10:18;7.50;99.90
82836;DHT22;72587;50.746;8.246;2023-12-22T11:12:46;7.50;99.90
82836;DHT22;72587;50.746;8.246;2023-12-22T11:15:14;7.50;99.90
82836;DHT22;72587;50.746;8.246;2023-12-22T11:17:42;7.50;99.90
82836;DHT22;72587;50.746;8.246;2023-12-22T11:20:12;7.60;99.90
82836;DHT22;72587;50.746;8.246;2023-12-22T11:22:38;7.60;99.90
82836;DHT22;72587;50.746;8.246;2023-12-22T11:25:07;7.50;99.90
82836;DHT22;72587;50.746;8.246;2023-12-22T11:27:33;7.50;99.90
82836;DHT22;72587;50.746;8.246;2023-12-22T11:30:01;7.60;99.90
82836;DHT22;72587;50.746;8.246;2023-12-22T11:32:27;7.60;99.90
82836;DHT22;72587;50.746;8.246;2023-12-22T11:34:54;7.50;99.90
82836;DHT22;72587;50.746;8.246;2023-12-22T11:37:22;7.50;99.90
82836;DHT22;72587;50.746;8.246;2023-12-22T11:39:47;7.50;99.90
82836;DHT22;72587;50.746;8.246;2023-12-22T11:42:21;7.50;99.90
82836;DHT22;72587;50.746;8.246;2023-12-22T11:44:48;7.40;99.90
82836;DHT22;72587;50.746;8.246;2023-12-22T11:47:14;7.40;99.90
82836;DHT22;72587;50.746;8.246;2023-12-22T11:49:40;7.50;99.90
82836;DHT22;72587;50.746;8.246;2023-12-22T11:52:17;7.50;99.90
82836;DHT22;72587;50.746;8.246;2023-12-22T11:54:53;7.60;99.90
82836;DHT22;72587;50.746;8.246;2023-12-22T11:57:36;7.60;99.90
82836;DHT22;72587;50.746;8.246;2023-12-22T12:02:54;7.70;99.90
82836;DHT22;72587;50.746;8.246;2023-12-22T12:05:20;7.70;99.90
82836;DHT22;72587;50.746;8.246;2023-12-22T12:07:47;7.70;99.90
82836;DHT22;72587;50.746;8.246;2023-12-22T12:13:09;7.80;99.90
82836;DHT22;72587;50.746;8.246;2023-12-22T12:15:37;7.90;99.90
82836;DHT22;72587;50.746;8.246;2023-12-22T12:18:04;8.00;99.90
82836;DHT22;72587;50.746;8.246;2023-12-22T12:20:32;8.00;99.90
82836;DHT22;72587;50.746;8.246;2023-12-22T12:22:57;8.00;99.90
82836;DHT22;72587;50.746;8.246;2023-12-22T12:25:25;8.10;99.90
82836;DHT22;72587;50.746;8.246;2023-12-22T12:28:06;8.00;99.90
82836;DHT22;72587;50.746;8.246;2023-12-22T12:30:32;7.90;99.90
82836;DHT22;72587;50.746;8.246;2023-12-22T12:33:05;7.90;99.90
82836;DHT22;72587;50.746;8.246;2023-12-22T12:35:32;7.90;99.90
82836;DHT22;72587;50.746;8.246;2023-12-22T12:37:59;7.80;99.90
82836;DHT22;72587;50.746;8.246;2023-12-22T12:40:27;7.80;99.90
82836;DHT22;72587;50.746;8.246;2023-12-22T12:42:55;7.80;99.90
82836;DHT22;72587;50.746;8.246;2023-12-22T12:45:25;7.90;99.90
82836;DHT22;72587;50.746;8.246;2023-12-22T12:48:01;7.90;99.90
82836;DHT22;72587;50.746;8.246;2023-12-22T12:50:27;8.00;99.90
82836;DHT22;72587;50.746;8.246;2023-12-22T12:52:54;8.00;99.90
82836;DHT22;72587;50.746;8.246;2023-12-22T12:55:24;8.00;99.90
82836;DHT22;72587;50.746;8.246;2023-12-22T12:57:54;8.00;99.90
82836;DHT22;72587;50.746;8.246;2023-12-22T13:00:33;8.00;99.90
82836;DHT22;72587;50.746;8.246;2023-12-22T13:03:05;8.00;99.90
82836;DHT22;72587;50.746;8.246;2023-12-22T13:05:32;8.10;99.90
82836;DHT22;72587;50.746;8.246;2023-12-22T13:08:10;8.20;99.90
82836;DHT22;72587;50.746;8.246;2023-12-22T13:10:37;8.30;99.90
82836;DHT22;72587;50.746;8.246;2023-12-22T13:13:03;8.20;99.90
82836;DHT22;72587;50.746;8.246;2023-12-22T13:15:29;8.30;99.90
82836;DHT22;72587;50.746;8.246;2023-12-22T13:17:55;8.30;99.90
82836;DHT22;72587;50.746;8.246;2023-12-22T13:20:22;8.30;99.90
82836;DHT22;72587;50.746;8.246;2023-12-22T13:22:48;8.20;99.90
82836;DHT22;72587;50.746;8.246;2023-12-22T13:25:14;8.30;99.90
82836;DHT22;72587;50.746;8.246;2023-12-22T13:27:51;8.20;99.90
82836;DHT22;72587;50.746;8.246;2023-12-22T13:30:34;8.20;99.90
82836;DHT22;72587;50.746;8.246;2023-12-22T13:33:02;8.30;99.90
82836;DHT22;72587;50.746;8.246;2023-12-22T13:35:28;8.30;99.90
82836;DHT22;72587;50.746;8.246;2023-12-22T13:37:54;8.30;99.90
82836;DHT22;72587;50.746;8.246;2023-12-22T13:40:20;8.30;99.90
82836;DHT22;72587;50.746;8.246;2023-12-22T13:42:54;8.40;99.90
82836;DHT22;72587;50.746;8.246;2023-12-22T13:45:20;8.40;99.90
82836;DHT22;72587;50.746;8.246;2023-12-22T13:47:45;8.50;99.90
82836;DHT22;72587;50.746;8.246;2023-12-22T13:50:14;8.40;99.90
82836;DHT22;72587;50.746;8.246;2023-12-22T13:52:40;8.40;99.90
82836;DHT22;72587;50.746;8.246;2023-12-22T13:55:12;8.50;99.90
82836;DHT22;72587;50.746;8.246;2023-12-22T13:57:38;8.50;99.90
82836;DHT22;72587;50.746;8.246;2023-12-22T14:00:25;8.50;99.90
82836;DHT22;72587;50.746;8.246;2023-12-22T14:02:51;8.50;99.90
82836;DHT22;72587;50.746;8.246;2023-12-22T14:05:20;8.40;99.90
82836;DHT22;72587;50.746;8.246;2023-12-22T14:07:47;8.40;99.90
82836;DHT22;72587;50.746;8.246;2023-12-22T14:10:13;8.40;99.90
82836;DHT22;72587;50.746;8.246;2023-12-22T14:12:39;8.40;99.90
82836;DHT22;72587;50.746;8.246;2023-12-22T14:15:12;8.40;99.90
82836;DHT22;72587;50.746;8.246;2023-12-22T14:17:38;8.30;99.90
82836;DHT22;72587;50.746;8.246;2023-12-22T14:20:04;8.30;99.90
82836;DHT22;72587;50.746;8.246;2023-12-22T14:22:30;8.30;99.90
82836;DHT22;72587;50.746;8.246;2023-12-22T14:24:56;8.20;99.90
82836;DHT22;72587;50.746;8.246;2023-12-22T14:27:24;8.10;99.90
82836;DHT22;72587;50.746;8.246;2023-12-22T14:29:50;8.10;99.90
82836;DHT22;72587;50.746;8.246;2023-12-22T14:32:16;8.00;99.90
82836;DHT22;72587;50.746;8.246;2023-12-22T14:34:44;8.00;99.90
82836;DHT22;72587;50.746;8.246;2023-12-22T14:37:10;8.00;99.90
82836;DHT22;72587;50.746;8.246;2023-12-22T14:39:36;8.00;99.90
82836;DHT22;72587;50.746;8.246;2023-12-22T14:42:01;8.10;99.90
82836;DHT22;72587;50.746;8.246;2023-12-22T14:44:28;8.00;99.90
82836;DHT22;72587;50.746;8.246;2023-12-22T14:46:54;8.10;99.90
82836;DHT22;72587;50.746;8.246;2023-12-22T14:49:20;8.10;99.90
82836;DHT22;72587;50.746;8.246;2023-12-22T14:51:45;8.10;99.90
82836;DHT22;72587;50.746;8.246;2023-12-22T14:54:19;8.10;99.90
82836;DHT22;72587;50.746;8.246;2023-12-22T14:56:46;8.10;99.90
82836;DHT22;72587;50.746;8.246;2023-12-22T14:59:12;8.00;99.90
82836;DHT22;72587;50.746;8.246;2023-12-22T15:01:40;8.00;99.90
82836;DHT22;72587;50.746;8.246;2023-12-22T15:04:06;8.00;99.90
82836;DHT22;72587;50.746;8.246;2023-12-22T15:06:32;8.00;99.90
82836;DHT22;72587;50.746;8.246;2023-12-22T15:08:58;8.00;99.90
82836;DHT22;72587;50.746;8.246;2023-12-22T15:11:25;8.10;99.90
82836;DHT22;72587;50.746;8.246;2023-12-22T15:13:50;8.10;99.90
82836;DHT22;72587;50.746;8.246;2023-12-22T15:16:16;8.10;99.90
82836;DHT22;72587;50.746;8.246;2023-12-22T15:18:41;8.10;99.90
82836;DHT22;72587;50.746;8.246;2023-12-22T15:21:07;8.20;99.90
82836;DHT22;72587;50.746;8.246;2023-12-22T15:23:32;8.20;99.90
82836;DHT22;72587;50.746;8.246;2023-12-22T15:25:59;8.20;99.90
82836;DHT22;72587;50.746;8.246;2023-12-22T15:28:24;8.20;99.90
82836;DHT22;72587;50.746;8.246;2023-12-22T15:30:51;8.20;99.90
82836;DHT22;72587;50.746;8.246;2023-12-22T15:33:17;8.30;99.90
82836;DHT22;72587;50.746;8.246;2023-12-22T15:35:43;8.20;99.90
82836;DHT22;72587;50.746;8.246;2023-12-22T15:38:09;8.20;99.90
82836;DHT22;72587;50.746;8.246;2023-12-22T15:40:36;8.20;99.90
82836;DHT22;72587;50.746;8.246;2023-12-22T15:43:01;8.20;99.90
82836;DHT22;72587;50.746;8.246;2023-12-22T15:45:27;8.20;99.90
82836;DHT22;72587;50.746;8.246;2023-12-22T15:47:52;8.20;99.90